This is the latest recevied weather packets stored in our database for station/object EA2BJM-15. If no packets are shown the sender has not sent any weather packets the latest 1 day(s).
| Time | Temp. | Humidity | Pressure | Rain* | Wind** | Luminosity | Snow |
|---|---|---|---|---|---|---|---|
| 1777996690 | 21.11° C | 25% | 1009.8 hPa | 0 mm | 0 m/s | - | - |
| 1777995790 | 20.56° C | 25% | 1009.8 hPa | 0 mm | 0 m/s | - | - |
| 1777994890 | 21.11° C | 25% | 1009.8 hPa | 0 mm | 0 m/s | - | - |
| 1777993990 | 21.11° C | 25% | 1009.8 hPa | 0 mm | 0 m/s | - | - |
| 1777993090 | 21.11° C | 25% | 1010.8 hPa | 0 mm | 0 m/s | - | - |
| 1777992189 | 21.11° C | 25% | 1010.8 hPa | 0 mm | 0 m/s | - | - |
| 1777991289 | 21.11° C | 24% | 1010.8 hPa | 0 mm | 0 m/s | - | - |
| 1777990389 | 21.67° C | 26% | 1010.8 hPa | 0 mm | 0 m/s | - | - |
| 1777989489 | 21.11° C | 26% | 1010.8 hPa | 0 mm | 0 m/s | - | - |
| 1777988589 | 21.11° C | 25% | 1010.8 hPa | 0 mm | 0 m/s | - | - |
| 1777987689 | 21.11° C | 25% | 1010.8 hPa | 0 mm | 0 m/s | - | - |
| 1777986789 | 21.11° C | 27% | 1010.8 hPa | 0 mm | 0 m/s | - | - |
| 1777985889 | 21.11° C | 29% | 1011.8 hPa | 0 mm | 0 m/s | - | - |
| 1777984989 | 21.11° C | 32% | 1011.8 hPa | 0 mm | 0 m/s | - | - |
| 1777984089 | 20.56° C | 34% | 1011.8 hPa | 0 mm | 0 m/s | - | - |
| 1777983189 | 19.44° C | 37% | 1011.8 hPa | 0 mm | 0 m/s | - | - |
| 1777982289 | 20° C | 33% | 1011.8 hPa | 0 mm | 0 m/s | - | - |
| 1777981389 | 21.11° C | 32% | 1011.8 hPa | 0 mm | 0 m/s | - | - |
| 1777980489 | 21.11° C | 33% | 1011.8 hPa | 0 mm | 0 m/s | - | - |
| 1777979589 | 20.56° C | 34% | 1012.8 hPa | 0 mm | 0 m/s | - | - |
| 1777978689 | 20.56° C | 35% | 1012.8 hPa | 0 mm | 0 m/s | - | - |
| 1777977789 | 20° C | 37% | 1012.8 hPa | 0 mm | 0 m/s | - | - |
| 1777976888 | 18.89° C | 41% | 1012.8 hPa | 0 mm | 0 m/s | - | - |
| 1777975988 | 17.22° C | 46% | 1012.8 hPa | 0 mm | 0 m/s | - | - |
| 1777975088 | 16.67° C | 46% | 1012.8 hPa | 0 mm | 0 m/s | - | - |
* Rain latest hour (hover to see other rain measurements)
** Current wind speed in m/s (hover to see current wind gust speed)